Time;durP1;ratioP1;P1;durP2;ratioP2;P2;SDS_P1;SDS_P2;PMS_P1;PMS_P2;Temp;Humidity;BMP_temperature;BMP_pressure;BME280_temperature;BME280_humidity;BME280_pressure;Samples;Min_cycle;Max_cycle;Signal;HPM_P1;HPM_P2
2021/09/22 00:00:41;;;;;;;;;;;14.90;99.90;;;;;;1914576;74;20457;-70
2021/09/22 00:03:08;;;;;;;;;;;14.90;99.90;;;;;;1907531;74;20236;-70
2021/09/22 00:05:35;;;;;;;;;;;14.90;99.90;;;;;;1912350;74;20597;-71
2021/09/22 00:08:02;;;;;;;;;;;14.90;99.90;;;;;;1911615;74;20291;-70
2021/09/22 00:10:29;;;;;;;;;;;14.80;99.90;;;;;;1911098;74;20404;-71
2021/09/22 00:12:56;;;;;;;;;;;14.80;99.90;;;;;;1907094;74;20167;-70
2021/09/22 00:15:24;;;;;;;;;;;14.80;99.90;;;;;;1908737;74;20154;-70
2021/09/22 00:17:51;;;;;;;;;;;14.70;99.90;;;;;;1913867;74;20152;-70
2021/09/22 00:20:22;;;;;;;;;;;14.60;99.90;;;;;;1909414;74;20145;-71
2021/09/22 00:22:47;;;;;;;;;;;14.60;99.90;;;;;;1911579;74;20224;-70
2021/09/22 00:25:13;;;;;;;;;;;14.60;99.90;;;;;;1911148;74;20868;-70
2021/09/22 00:27:42;;;;;;;;;;;14.60;99.90;;;;;;1909923;74;20214;-71
2021/09/22 00:30:10;;;;;;;;;;;14.60;99.90;;;;;;1910718;74;21256;-70
2021/09/22 00:32:36;;;;;;;;;;;14.60;99.90;;;;;;1904892;74;20249;-70
2021/09/22 00:35:03;;;;;;;;;;;14.70;99.90;;;;;;1910197;74;20137;-73
2021/09/22 00:37:30;;;;;;;;;;;14.70;99.90;;;;;;1913679;74;20193;-70
2021/09/22 00:39:57;;;;;;;;;;;14.70;99.90;;;;;;1912623;74;20174;-71
2021/09/22 00:42:24;;;;;;;;;;;14.70;99.90;;;;;;1907138;74;20317;-71
2021/09/22 00:44:55;;;;;;;;;;;14.70;99.90;;;;;;1906263;74;20205;-71
2021/09/22 00:47:21;;;;;;;;;;;14.70;99.90;;;;;;1905668;74;20198;-70
2021/09/22 00:49:47;;;;;;;;;;;14.60;99.90;;;;;;1911495;74;20479;-70
2021/09/22 00:52:15;;;;;;;;;;;14.70;99.90;;;;;;1913883;74;20177;-70
2021/09/22 00:54:42;;;;;;;;;;;14.70;99.90;;;;;;1912949;74;20164;-70
2021/09/22 00:57:10;;;;;;;;;;;14.70;99.90;;;;;;1914408;74;20193;-70
2021/09/22 00:59:37;;;;;;;;;;;14.70;99.90;;;;;;1909905;74;20218;-71
2021/09/22 01:02:05;;;;;;;;;;;14.60;99.90;;;;;;1913998;74;20190;-71
2021/09/22 01:04:32;;;;;;;;;;;14.70;99.90;;;;;;1914729;74;20238;-71
2021/09/22 01:06:59;;;;;;;;;;;14.70;99.90;;;;;;1914079;74;20224;-71
2021/09/22 01:09:27;;;;;;;;;;;14.70;99.90;;;;;;1911524;74;20455;-71
2021/09/22 01:11:54;;;;;;;;;;;14.70;99.90;;;;;;1909189;74;20622;-71
2021/09/22 01:14:22;;;;;;;;;;;14.70;99.90;;;;;;1910597;74;20839;-71
2021/09/22 01:16:49;;;;;;;;;;;14.70;99.90;;;;;;1912841;74;20360;-71
2021/09/22 01:19:16;;;;;;;;;;;14.70;99.90;;;;;;1907436;74;20209;-71
2021/09/22 01:21:44;;;;;;;;;;;14.60;99.90;;;;;;1909369;74;20175;-70
2021/09/22 01:24:11;;;;;;;;;;;14.60;99.90;;;;;;1912670;74;20199;-70
2021/09/22 01:26:42;;;;;;;;;;;14.70;99.90;;;;;;1913404;74;20162;-70
2021/09/22 01:29:06;;;;;;;;;;;14.60;99.90;;;;;;1906090;74;20129;-70
2021/09/22 01:31:36;;;;;;;;;;;14.50;99.90;;;;;;1912239;74;20175;-70
2021/09/22 01:34:04;;;;;;;;;;;14.50;99.90;;;;;;1914915;74;20194;-71
2021/09/22 01:36:31;;;;;;;;;;;14.50;99.90;;;;;;1915821;74;20112;-71
2021/09/22 01:38:58;;;;;;;;;;;14.50;99.90;;;;;;1907134;74;20444;-70
2021/09/22 01:41:25;;;;;;;;;;;14.50;99.90;;;;;;1913610;74;20153;-71
2021/09/22 01:43:51;;;;;;;;;;;14.50;99.90;;;;;;1907047;74;20217;-71
2021/09/22 01:46:18;;;;;;;;;;;14.50;99.90;;;;;;1907125;74;20256;-71
2021/09/22 01:48:45;;;;;;;;;;;14.50;99.90;;;;;;1910034;74;20830;-70
2021/09/22 01:51:12;;;;;;;;;;;14.50;99.90;;;;;;1911599;74;20246;-71
2021/09/22 01:53:39;;;;;;;;;;;14.50;99.90;;;;;;1912228;74;20245;-71
2021/09/22 01:56:07;;;;;;;;;;;14.40;99.90;;;;;;1912754;74;20734;-70
2021/09/22 01:58:34;;;;;;;;;;;14.40;99.90;;;;;;1911353;74;20218;-70
2021/09/22 02:01:02;;;;;;;;;;;14.40;99.90;;;;;;1916088;74;20432;-70
2021/09/22 02:03:29;;;;;;;;;;;14.40;99.90;;;;;;1913169;74;20111;-70
2021/09/22 02:05:56;;;;;;;;;;;14.40;99.90;;;;;;1908682;74;20509;-70
2021/09/22 02:08:23;;;;;;;;;;;14.40;99.90;;;;;;1914792;74;20153;-69
2021/09/22 02:10:50;;;;;;;;;;;14.40;99.90;;;;;;1911901;74;20209;-69
2021/09/22 02:13:17;;;;;;;;;;;14.40;99.90;;;;;;1912113;74;20211;-69
2021/09/22 02:15:43;;;;;;;;;;;14.40;99.90;;;;;;1913895;74;20127;-70
2021/09/22 02:18:10;;;;;;;;;;;14.30;99.90;;;;;;1911201;74;20222;-71
2021/09/22 02:20:37;;;;;;;;;;;14.30;99.90;;;;;;1910011;74;20168;-71
2021/09/22 02:23:04;;;;;;;;;;;14.30;99.90;;;;;;1912226;74;20519;-71
2021/09/22 02:25:31;;;;;;;;;;;14.20;99.90;;;;;;1915410;74;20169;-70
2021/09/22 02:27:58;;;;;;;;;;;14.20;99.90;;;;;;1910031;74;20117;-70
2021/09/22 02:30:25;;;;;;;;;;;14.20;99.90;;;;;;1913392;74;20161;-70
2021/09/22 02:32:52;;;;;;;;;;;14.20;99.90;;;;;;1912873;74;20131;-70
2021/09/22 02:35:19;;;;;;;;;;;14.20;99.90;;;;;;1916585;74;20162;-70
2021/09/22 02:37:45;;;;;;;;;;;14.20;99.90;;;;;;1914709;74;20210;-70
2021/09/22 02:40:14;;;;;;;;;;;14.20;99.90;;;;;;1911333;74;20237;-70
2021/09/22 02:42:42;;;;;;;;;;;14.30;99.90;;;;;;1910947;74;20229;-70
2021/09/22 02:45:09;;;;;;;;;;;14.30;99.90;;;;;;1907546;74;20176;-70
2021/09/22 02:47:36;;;;;;;;;;;14.20;99.90;;;;;;1911047;74;20191;-70
2021/09/22 02:50:03;;;;;;;;;;;14.20;99.90;;;;;;1914252;74;20235;-69
2021/09/22 02:52:30;;;;;;;;;;;14.20;99.90;;;;;;1915031;74;20197;-69
2021/09/22 02:54:56;;;;;;;;;;;14.30;99.90;;;;;;1912137;74;20133;-70
2021/09/22 02:57:23;;;;;;;;;;;14.20;99.90;;;;;;1912434;74;20174;-70
2021/09/22 02:59:50;;;;;;;;;;;14.20;99.90;;;;;;1913349;74;20380;-70
2021/09/22 03:02:17;;;;;;;;;;;14.20;99.90;;;;;;1909818;74;20110;-70
2021/09/22 03:04:43;;;;;;;;;;;14.10;99.90;;;;;;1913667;74;20451;-70
2021/09/22 03:07:10;;;;;;;;;;;14.10;99.90;;;;;;1910679;74;20243;-70
2021/09/22 03:09:37;;;;;;;;;;;14.10;99.90;;;;;;1912522;74;20561;-70
2021/09/22 03:12:04;;;;;;;;;;;14.00;99.90;;;;;;1911068;74;20169;-70
2021/09/22 03:14:31;;;;;;;;;;;14.00;99.90;;;;;;1910136;74;20128;-70
2021/09/22 03:16:57;;;;;;;;;;;14.10;99.90;;;;;;1910017;74;20465;-70
2021/09/22 03:19:24;;;;;;;;;;;14.10;99.90;;;;;;1913382;74;20168;-70
2021/09/22 03:21:51;;;;;;;;;;;14.00;99.90;;;;;;1913211;74;20509;-70
2021/09/22 03:24:18;;;;;;;;;;;14.00;99.90;;;;;;1908481;74;20172;-70
2021/09/22 03:26:45;;;;;;;;;;;14.00;99.90;;;;;;1913202;74;21188;-70
2021/09/22 03:29:11;;;;;;;;;;;14.00;99.90;;;;;;1911085;74;20195;-70
2021/09/22 03:31:39;;;;;;;;;;;14.00;99.90;;;;;;1909455;74;20511;-70
2021/09/22 03:34:06;;;;;;;;;;;14.00;99.90;;;;;;1914597;74;20246;-71
2021/09/22 03:36:33;;;;;;;;;;;14.00;99.90;;;;;;1914470;74;20140;-71
2021/09/22 03:39:00;;;;;;;;;;;14.00;99.90;;;;;;1913106;74;20257;-71
2021/09/22 03:41:27;;;;;;;;;;;14.00;99.90;;;;;;1912816;74;20176;-71
2021/09/22 03:43:53;;;;;;;;;;;14.10;99.90;;;;;;1906991;74;20154;-71
2021/09/22 03:46:20;;;;;;;;;;;14.10;99.90;;;;;;1914942;74;20197;-71
2021/09/22 03:48:47;;;;;;;;;;;14.10;99.90;;;;;;1910541;74;20217;-70
2021/09/22 03:51:14;;;;;;;;;;;14.10;99.90;;;;;;1906444;74;20229;-71
2021/09/22 03:53:41;;;;;;;;;;;14.10;99.90;;;;;;1910124;74;20213;-70
2021/09/22 03:56:08;;;;;;;;;;;14.10;99.90;;;;;;1911065;74;20176;-70
2021/09/22 03:58:34;;;;;;;;;;;14.10;99.90;;;;;;1911935;74;20155;-70
2021/09/22 04:01:01;;;;;;;;;;;14.00;99.90;;;;;;1909907;74;20155;-70
2021/09/22 04:03:28;;;;;;;;;;;14.00;99.90;;;;;;1914514;74;20109;-71
2021/09/22 04:05:55;;;;;;;;;;;14.00;99.90;;;;;;1908715;74;20183;-71
2021/09/22 04:08:22;;;;;;;;;;;14.00;99.90;;;;;;1911830;74;20166;-70
2021/09/22 04:10:49;;;;;;;;;;;14.00;99.90;;;;;;1913692;74;20334;-71
2021/09/22 04:13:15;;;;;;;;;;;14.00;99.90;;;;;;1912218;74;20178;-71
2021/09/22 04:15:42;;;;;;;;;;;14.00;99.90;;;;;;1915628;74;20133;-70
2021/09/22 04:18:09;;;;;;;;;;;14.00;99.90;;;;;;1915127;74;20180;-70
2021/09/22 04:20:36;;;;;;;;;;;13.90;99.90;;;;;;1907156;74;20276;-70
2021/09/22 04:23:02;;;;;;;;;;;13.90;99.90;;;;;;1913407;74;20147;-70
2021/09/22 04:25:29;;;;;;;;;;;13.90;99.90;;;;;;1908649;74;20530;-70
2021/09/22 04:27:56;;;;;;;;;;;14.00;99.90;;;;;;1908085;74;20225;-70
2021/09/22 04:30:23;;;;;;;;;;;14.00;99.90;;;;;;1914608;74;21299;-70
2021/09/22 04:32:50;;;;;;;;;;;13.90;99.90;;;;;;1910488;74;20210;-70
2021/09/22 04:35:17;;;;;;;;;;;13.90;99.90;;;;;;1914584;74;20154;-70
2021/09/22 04:37:44;;;;;;;;;;;13.80;99.90;;;;;;1913994;74;20260;-70
2021/09/22 04:40:11;;;;;;;;;;;13.90;99.90;;;;;;1912911;74;20241;-71
2021/09/22 04:42:38;;;;;;;;;;;13.80;99.90;;;;;;1910399;74;20184;-70
2021/09/22 04:45:06;;;;;;;;;;;13.70;99.90;;;;;;1915289;74;20661;-70
2021/09/22 04:47:33;;;;;;;;;;;13.70;99.90;;;;;;1910145;74;20524;-71
2021/09/22 04:50:01;;;;;;;;;;;13.70;99.90;;;;;;1913010;74;20458;-70
2021/09/22 04:52:28;;;;;;;;;;;13.80;99.90;;;;;;1914068;74;20734;-71
2021/09/22 04:54:54;;;;;;;;;;;13.80;99.90;;;;;;1912315;74;20215;-70
2021/09/22 04:57:21;;;;;;;;;;;13.70;99.90;;;;;;1913730;74;20115;-71
2021/09/22 04:59:48;;;;;;;;;;;13.80;99.90;;;;;;1912676;74;20248;-71
2021/09/22 05:02:15;;;;;;;;;;;13.80;99.90;;;;;;1915535;74;20222;-71
2021/09/22 05:04:42;;;;;;;;;;;13.80;99.90;;;;;;1911912;74;20188;-71
2021/09/22 05:07:09;;;;;;;;;;;13.80;99.90;;;;;;1909592;74;20143;-70
2021/09/22 05:09:35;;;;;;;;;;;13.70;99.90;;;;;;1912355;74;20210;-71
2021/09/22 05:12:02;;;;;;;;;;;13.60;99.90;;;;;;1913318;74;20167;-70
2021/09/22 05:14:29;;;;;;;;;;;13.60;99.90;;;;;;1914843;74;20209;-70
2021/09/22 05:16:56;;;;;;;;;;;13.50;99.90;;;;;;1915753;74;20242;-70
2021/09/22 05:19:23;;;;;;;;;;;13.50;99.90;;;;;;1909199;74;20169;-70
2021/09/22 05:21:49;;;;;;;;;;;13.50;99.90;;;;;;1909997;74;20409;-70
2021/09/22 05:24:16;;;;;;;;;;;13.50;99.90;;;;;;1912490;74;20176;-71
2021/09/22 05:26:44;;;;;;;;;;;13.60;99.90;;;;;;1910401;74;20164;-71
2021/09/22 05:29:11;;;;;;;;;;;13.60;99.90;;;;;;1906048;74;20248;-70
2021/09/22 05:31:38;;;;;;;;;;;13.50;99.90;;;;;;1916448;74;20122;-72
2021/09/22 05:34:05;;;;;;;;;;;13.50;99.90;;;;;;1910244;74;20563;-72
2021/09/22 05:36:32;;;;;;;;;;;13.50;99.90;;;;;;1914778;74;20998;-72
2021/09/22 05:38:59;;;;;;;;;;;13.60;99.90;;;;;;1914266;74;20168;-72
2021/09/22 05:41:25;;;;;;;;;;;13.50;99.90;;;;;;1917038;74;20574;-72
2021/09/22 05:43:52;;;;;;;;;;;13.50;99.90;;;;;;1908186;74;20164;-72
2021/09/22 05:46:19;;;;;;;;;;;13.50;99.90;;;;;;1906493;74;20422;-72
2021/09/22 05:48:46;;;;;;;;;;;13.50;99.90;;;;;;1914204;74;20164;-72
2021/09/22 05:51:12;;;;;;;;;;;13.50;99.90;;;;;;1912258;74;20161;-72
2021/09/22 05:53:42;;;;;;;;;;;13.50;99.90;;;;;;1912662;74;20197;-71
2021/09/22 05:56:08;;;;;;;;;;;13.50;99.90;;;;;;1913250;74;20494;-72
2021/09/22 05:58:35;;;;;;;;;;;13.60;99.90;;;;;;1910736;74;20245;-71
2021/09/22 06:01:01;;;;;;;;;;;13.60;99.90;;;;;;1910623;74;20498;-71
2021/09/22 06:03:28;;;;;;;;;;;13.50;99.90;;;;;;1913879;74;20166;-72
2021/09/22 06:05:55;;;;;;;;;;;13.60;99.90;;;;;;1914245;74;20235;-71
2021/09/22 06:08:22;;;;;;;;;;;13.60;99.90;;;;;;1908187;74;20205;-74
2021/09/22 06:10:49;;;;;;;;;;;13.60;99.90;;;;;;1914622;74;20436;-74
2021/09/22 06:13:16;;;;;;;;;;;13.60;99.90;;;;;;1902335;74;20229;-73
2021/09/22 06:15:43;;;;;;;;;;;13.60;99.90;;;;;;1910988;74;20211;-73
2021/09/22 06:18:09;;;;;;;;;;;13.60;99.90;;;;;;1907540;74;20210;-73
2021/09/22 06:20:36;;;;;;;;;;;13.60;99.90;;;;;;1909737;74;20176;-73
2021/09/22 06:23:03;;;;;;;;;;;13.70;99.90;;;;;;1909234;74;20226;-73
2021/09/22 06:25:30;;;;;;;;;;;13.70;99.90;;;;;;1915663;74;20246;-71
2021/09/22 06:27:57;;;;;;;;;;;13.60;99.90;;;;;;1908602;74;20165;-71
2021/09/22 06:30:23;;;;;;;;;;;13.60;99.90;;;;;;1916090;74;20840;-71
2021/09/22 06:32:50;;;;;;;;;;;13.60;99.90;;;;;;1908929;74;20209;-71
2021/09/22 06:35:17;;;;;;;;;;;13.60;99.90;;;;;;1909098;74;21338;-71
2021/09/22 06:37:48;;;;;;;;;;;13.70;99.90;;;;;;1914339;74;20301;-70
2021/09/22 06:40:12;;;;;;;;;;;13.70;99.90;;;;;;1908806;74;20467;-71
2021/09/22 06:42:39;;;;;;;;;;;13.70;99.90;;;;;;1910260;74;20179;-70
2021/09/22 06:45:06;;;;;;;;;;;13.80;99.90;;;;;;1911102;74;20352;-71
2021/09/22 06:47:33;;;;;;;;;;;13.80;99.90;;;;;;1913123;74;20176;-72
2021/09/22 06:50:00;;;;;;;;;;;13.70;99.90;;;;;;1909747;74;20210;-72
2021/09/22 06:52:29;;;;;;;;;;;13.80;99.90;;;;;;1910797;74;20226;-73
2021/09/22 06:54:55;;;;;;;;;;;13.80;99.90;;;;;;1906035;74;20182;-72
2021/09/22 06:57:22;;;;;;;;;;;13.80;99.90;;;;;;1910810;74;20209;-73
2021/09/22 06:59:49;;;;;;;;;;;13.90;99.90;;;;;;1913979;74;20184;-73
2021/09/22 07:02:16;;;;;;;;;;;14.00;99.90;;;;;;1909375;74;20175;-72
2021/09/22 07:04:42;;;;;;;;;;;14.10;99.90;;;;;;1912687;74;20488;-72
2021/09/22 07:07:10;;;;;;;;;;;14.10;99.90;;;;;;1916288;74;20197;-71
2021/09/22 07:09:36;;;;;;;;;;;14.00;99.90;;;;;;1915008;74;20163;-73
2021/09/22 07:12:04;;;;;;;;;;;14.10;99.90;;;;;;1916677;74;20159;-72
2021/09/22 07:14:30;;;;;;;;;;;14.20;99.90;;;;;;1915579;74;20131;-73
2021/09/22 07:16:57;;;;;;;;;;;14.20;99.90;;;;;;1912871;74;20184;-72
2021/09/22 07:19:24;;;;;;;;;;;14.10;99.90;;;;;;1907970;74;20125;-72
2021/09/22 07:21:51;;;;;;;;;;;14.20;99.90;;;;;;1910370;74;20227;-72
2021/09/22 07:24:18;;;;;;;;;;;14.20;99.90;;;;;;1916124;74;20200;-72
2021/09/22 07:26:44;;;;;;;;;;;14.30;99.90;;;;;;1916567;74;20176;-72
2021/09/22 07:29:11;;;;;;;;;;;14.30;99.90;;;;;;1917690;74;20161;-72
2021/09/22 07:31:38;;;;;;;;;;;14.30;99.90;;;;;;1915786;74;20121;-72
2021/09/22 07:34:05;;;;;;;;;;;14.40;99.90;;;;;;1913404;74;20163;-72
2021/09/22 07:36:32;;;;;;;;;;;14.40;99.90;;;;;;1916714;74;20258;-72
2021/09/22 07:38:58;;;;;;;;;;;14.40;99.90;;;;;;1910854;74;20192;-72
2021/09/22 07:41:25;;;;;;;;;;;14.50;99.90;;;;;;1909877;74;20224;-72
2021/09/22 07:43:52;;;;;;;;;;;14.50;99.90;;;;;;1918845;74;20219;-73
2021/09/22 07:46:19;;;;;;;;;;;14.60;99.90;;;;;;1912949;74;20179;-71
2021/09/22 07:48:46;;;;;;;;;;;14.60;99.90;;;;;;1908608;74;20174;-72
2021/09/22 07:51:12;;;;;;;;;;;14.60;99.90;;;;;;1916708;74;20127;-72
2021/09/22 07:53:39;;;;;;;;;;;14.60;99.90;;;;;;1909387;74;20188;-72
2021/09/22 07:56:06;;;;;;;;;;;14.70;99.90;;;;;;1911193;74;20212;-72
2021/09/22 07:58:33;;;;;;;;;;;14.80;99.90;;;;;;1917007;74;20110;-73
2021/09/22 08:01:00;;;;;;;;;;;14.80;99.90;;;;;;1913982;74;20230;-72
2021/09/22 08:03:26;;;;;;;;;;;14.80;99.90;;;;;;1912512;74;20194;-72
2021/09/22 08:05:53;;;;;;;;;;;14.90;99.90;;;;;;1906106;74;20185;-72
2021/09/22 08:08:20;;;;;;;;;;;14.90;99.90;;;;;;1916624;74;20169;-73
2021/09/22 08:10:47;;;;;;;;;;;15.00;99.90;;;;;;1915614;74;20131;-72
2021/09/22 08:13:14;;;;;;;;;;;15.00;99.90;;;;;;1915065;74;20713;-73
2021/09/22 08:15:41;;;;;;;;;;;15.10;99.90;;;;;;1916783;74;20176;-72
2021/09/22 08:18:07;;;;;;;;;;;15.20;99.90;;;;;;1914779;74;20163;-73
2021/09/22 08:20:34;;;;;;;;;;;15.30;99.90;;;;;;1915028;74;20536;-73
2021/09/22 08:23:01;;;;;;;;;;;15.40;99.90;;;;;;1913090;74;20182;-72
2021/09/22 08:25:28;;;;;;;;;;;15.40;99.90;;;;;;1917343;74;20127;-73
2021/09/22 08:27:55;;;;;;;;;;;15.40;99.90;;;;;;1912736;74;20170;-72
2021/09/22 08:30:22;;;;;;;;;;;15.40;99.90;;;;;;1916912;74;20113;-72
2021/09/22 08:32:49;;;;;;;;;;;15.50;99.90;;;;;;1916157;74;20257;-73
2021/09/22 08:35:15;;;;;;;;;;;15.60;99.90;;;;;;1912975;74;20161;-72
2021/09/22 08:37:42;;;;;;;;;;;15.60;99.90;;;;;;1918666;74;20128;-73
2021/09/22 08:40:10;;;;;;;;;;;15.70;99.90;;;;;;1916407;74;20256;-72
2021/09/22 08:42:37;;;;;;;;;;;15.70;99.90;;;;;;1915821;74;20342;-72
2021/09/22 08:45:05;;;;;;;;;;;15.70;99.90;;;;;;1912641;74;20157;-72
2021/09/22 08:47:31;;;;;;;;;;;15.80;99.90;;;;;;1915361;74;20177;-72
2021/09/22 08:49:58;;;;;;;;;;;15.80;99.90;;;;;;1917529;74;20285;-73
2021/09/22 08:52:25;;;;;;;;;;;15.90;99.90;;;;;;1915261;74;20233;-72
2021/09/22 08:54:52;;;;;;;;;;;15.90;99.90;;;;;;1916174;74;20369;-72
2021/09/22 08:57:19;;;;;;;;;;;15.90;99.90;;;;;;1916776;74;20112;-72
2021/09/22 08:59:46;;;;;;;;;;;16.00;99.90;;;;;;1916118;74;20525;-73
2021/09/22 09:02:14;;;;;;;;;;;16.00;99.90;;;;;;1911974;74;20127;-72
2021/09/22 09:04:42;;;;;;;;;;;16.00;99.90;;;;;;1917952;74;20113;-72
2021/09/22 09:07:09;;;;;;;;;;;16.00;99.90;;;;;;1917561;74;20157;-71
2021/09/22 09:09:40;;;;;;;;;;;16.10;99.90;;;;;;1914832;74;20206;-71
2021/09/22 09:12:18;;;;;;;;;;;16.10;99.90;;;;;;1911874;74;20172;-71
2021/09/22 09:14:55;;;;;;;;;;;16.20;99.90;;;;;;1915852;74;20152;-71
2021/09/22 09:17:36;;;;;;;;;;;16.20;99.90;;;;;;1920420;74;20492;-71
2021/09/22 09:20:02;;;;;;;;;;;16.20;99.90;;;;;;1915028;74;20180;-71
2021/09/22 09:22:29;;;;;;;;;;;16.30;99.90;;;;;;1911459;74;20424;-71
2021/09/22 09:24:55;;;;;;;;;;;16.30;99.90;;;;;;1916254;74;20179;-71
2021/09/22 09:27:24;;;;;;;;;;;16.30;99.90;;;;;;1916009;74;20217;-72
2021/09/22 09:29:57;;;;;;;;;;;16.30;99.90;;;;;;1908756;74;20172;-71
2021/09/22 09:32:29;;;;;;;;;;;16.30;99.90;;;;;;1913497;74;20172;-71
2021/09/22 09:34:58;;;;;;;;;;;16.30;99.90;;;;;;1913161;74;20189;-72
2021/09/22 09:37:29;;;;;;;;;;;16.40;99.90;;;;;;1914103;74;20764;-72
2021/09/22 09:39:56;;;;;;;;;;;16.50;99.90;;;;;;1917339;74;20219;-71
2021/09/22 09:42:24;;;;;;;;;;;16.50;99.90;;;;;;1915986;74;20182;-72
2021/09/22 09:44:51;;;;;;;;;;;16.60;99.90;;;;;;1914243;74;20223;-72
2021/09/22 09:47:19;;;;;;;;;;;16.60;99.90;;;;;;1921234;74;20127;-72
2021/09/22 09:49:46;;;;;;;;;;;16.70;99.90;;;;;;1916319;74;20180;-72
2021/09/22 09:52:13;;;;;;;;;;;16.80;99.90;;;;;;1918501;74;20110;-72
2021/09/22 09:54:41;;;;;;;;;;;17.10;99.90;;;;;;1916247;74;20139;-72
2021/09/22 09:57:10;;;;;;;;;;;17.10;99.90;;;;;;1916343;74;20217;-72
2021/09/22 09:59:38;;;;;;;;;;;17.10;99.90;;;;;;1914660;74;20174;-72
2021/09/22 10:02:05;;;;;;;;;;;17.30;99.90;;;;;;1908053;74;20485;-71
2021/09/22 10:04:31;;;;;;;;;;;17.30;99.90;;;;;;1915759;74;20115;-72
2021/09/22 10:06:58;;;;;;;;;;;17.30;99.90;;;;;;1912987;74;20170;-72
2021/09/22 10:09:25;;;;;;;;;;;17.20;99.90;;;;;;1909027;74;20178;-72
2021/09/22 10:11:52;;;;;;;;;;;17.20;99.90;;;;;;1910737;74;20118;-71
2021/09/22 10:14:19;;;;;;;;;;;17.10;99.90;;;;;;1905153;74;20261;-71
2021/09/22 10:16:48;;;;;;;;;;;17.10;99.90;;;;;;1911836;74;20221;-72
2021/09/22 10:19:15;;;;;;;;;;;17.20;99.90;;;;;;1916634;74;20161;-71
2021/09/22 10:21:41;;;;;;;;;;;17.30;99.90;;;;;;1912521;74;20206;-72
2021/09/22 10:24:10;;;;;;;;;;;17.30;99.90;;;;;;1917095;74;20167;-72
2021/09/22 10:26:37;;;;;;;;;;;17.30;99.90;;;;;;1905484;74;20379;-71
2021/09/22 10:29:06;;;;;;;;;;;17.30;99.90;;;;;;1918971;74;20111;-71
2021/09/22 10:31:34;;;;;;;;;;;17.40;99.90;;;;;;1902790;74;20454;-72
2021/09/22 10:34:01;;;;;;;;;;;17.40;99.90;;;;;;1911153;74;20192;-72
2021/09/22 10:36:35;;;;;;;;;;;17.50;99.90;;;;;;1914946;74;20207;-72
2021/09/22 10:39:03;;;;;;;;;;;17.50;99.90;;;;;;1913415;74;20450;-72
2021/09/22 10:41:32;;;;;;;;;;;17.70;99.90;;;;;;1916019;74;20207;-72
2021/09/22 10:43:59;;;;;;;;;;;17.80;99.90;;;;;;1917475;74;20127;-71
2021/09/22 10:46:28;;;;;;;;;;;17.70;99.90;;;;;;1917362;74;20446;-71
2021/09/22 10:49:01;;;;;;;;;;;17.60;99.90;;;;;;1920759;74;20123;-72
2021/09/22 10:51:35;;;;;;;;;;;17.50;99.90;;;;;;1909659;74;20223;-72
2021/09/22 10:54:06;;;;;;;;;;;17.50;99.90;;;;;;1910248;74;20185;-71
2021/09/22 10:56:33;;;;;;;;;;;17.70;99.90;;;;;;1907555;74;20127;-71
2021/09/22 10:59:06;;;;;;;;;;;17.90;99.90;;;;;;1911771;74;20425;-71
2021/09/22 11:01:34;;;;;;;;;;;18.20;99.90;;;;;;1911706;74;20225;-71
2021/09/22 11:04:02;;;;;;;;;;;18.10;99.90;;;;;;1914916;74;20174;-71
2021/09/22 11:06:46;;;;;;;;;;;18.00;99.90;;;;;;1906875;74;20139;-71
2021/09/22 11:09:14;;;;;;;;;;;17.80;99.90;;;;;;1911881;74;20110;-71
2021/09/22 11:12:03;;;;;;;;;;;17.80;99.90;;;;;;1918410;74;20123;-71
2021/09/22 11:14:37;;;;;;;;;;;17.90;99.90;;;;;;1917517;74;20127;-71
2021/09/22 11:17:17;;;;;;;;;;;18.20;99.90;;;;;;1919672;74;20151;-71
2021/09/22 11:19:45;;;;;;;;;;;18.40;99.90;;;;;;1914731;74;20140;-71
2021/09/22 11:22:13;;;;;;;;;;;18.70;99.90;;;;;;1916882;74;20204;-71
2021/09/22 11:24:43;;;;;;;;;;;18.70;99.90;;;;;;1913617;74;20228;-71
2021/09/22 11:27:11;;;;;;;;;;;18.70;99.90;;;;;;1916491;74;20217;-71
2021/09/22 11:29:43;;;;;;;;;;;18.70;99.90;;;;;;1915362;74;20558;-71
2021/09/22 11:32:27;;;;;;;;;;;18.70;99.90;;;;;;1912458;74;20530;-71
2021/09/22 11:34:52;;;;;;;;;;;18.70;99.90;;;;;;1911541;74;20455;-71
2021/09/22 11:37:19;;;;;;;;;;;18.70;99.90;;;;;;1916703;74;20183;-71
2021/09/22 11:39:46;;;;;;;;;;;18.80;99.90;;;;;;1918110;74;20176;-71
2021/09/22 11:42:15;;;;;;;;;;;18.80;99.90;;;;;;1916122;74;20469;-71
2021/09/22 11:44:41;;;;;;;;;;;18.70;99.90;;;;;;1916898;74;20242;-71
2021/09/22 11:47:10;;;;;;;;;;;18.60;99.90;;;;;;1919204;74;20446;-71
2021/09/22 11:49:38;;;;;;;;;;;18.80;99.90;;;;;;1916994;74;20210;-71
2021/09/22 11:52:06;;;;;;;;;;;18.90;99.90;;;;;;1918953;74;20111;-71
2021/09/22 11:54:37;;;;;;;;;;;19.00;99.90;;;;;;1914115;74;20131;-71
2021/09/22 11:57:05;;;;;;;;;;;19.00;99.90;;;;;;1911425;74;20186;-71
2021/09/22 11:59:33;;;;;;;;;;;19.00;99.90;;;;;;1911176;74;20147;-71
2021/09/22 12:02:00;;;;;;;;;;;19.10;99.90;;;;;;1915269;74;20184;-71
2021/09/22 12:04:31;;;;;;;;;;;19.10;99.90;;;;;;1917303;74;20503;-71
2021/09/22 12:06:58;;;;;;;;;;;19.10;99.90;;;;;;1910428;74;20163;-71
2021/09/22 12:09:25;;;;;;;;;;;18.90;99.90;;;;;;1907026;74;20321;-71
2021/09/22 12:12:05;;;;;;;;;;;19.20;99.90;;;;;;1913476;74;20315;-71
2021/09/22 12:14:32;;;;;;;;;;;19.20;99.90;;;;;;1910292;74;20142;-71
2021/09/22 12:17:01;;;;;;;;;;;19.20;99.90;;;;;;1916820;74;20110;-71
2021/09/22 12:19:27;;;;;;;;;;;19.10;99.90;;;;;;1908468;74;20224;-71
2021/09/22 12:21:54;;;;;;;;;;;19.40;99.90;;;;;;1907997;74;20227;-71
2021/09/22 12:24:21;;;;;;;;;;;19.60;99.90;;;;;;1914558;74;20121;-71
2021/09/22 12:26:52;;;;;;;;;;;19.80;99.90;;;;;;1916186;74;20188;-71
2021/09/22 12:29:20;;;;;;;;;;;19.80;99.90;;;;;;1916147;74;20210;-71
2021/09/22 12:31:46;;;;;;;;;;;20.10;99.90;;;;;;1917578;74;20165;-71
2021/09/22 12:34:17;;;;;;;;;;;20.60;99.90;;;;;;1916364;74;20122;-71
2021/09/22 12:36:45;;;;;;;;;;;21.00;99.90;;;;;;1911810;74;20176;-71
2021/09/22 12:39:16;;;;;;;;;;;21.30;99.90;;;;;;1912697;74;20471;-71
2021/09/22 12:42:03;;;;;;;;;;;21.60;99.90;;;;;;1913049;74;20242;-71
2021/09/22 12:44:31;;;;;;;;;;;21.70;99.90;;;;;;1911827;74;20174;-71
2021/09/22 12:46:57;;;;;;;;;;;21.60;99.90;;;;;;1915342;74;20221;-71
2021/09/22 12:49:24;;;;;;;;;;;21.70;99.90;;;;;;1917231;74;20165;-71
2021/09/22 12:51:53;;;;;;;;;;;22.10;99.90;;;;;;1916290;74;20485;-71
2021/09/22 12:54:20;;;;;;;;;;;22.30;99.90;;;;;;1915115;74;20190;-71
2021/09/22 12:56:47;;;;;;;;;;;22.50;99.90;;;;;;1919069;74;20163;-71
2021/09/22 12:59:21;;;;;;;;;;;22.50;99.90;;;;;;1913344;74;20235;-72
2021/09/22 13:01:50;;;;;;;;;;;22.60;99.90;;;;;;1912230;74;20167;-71
2021/09/22 13:04:23;;;;;;;;;;;22.90;99.90;;;;;;1908217;74;20496;-72
2021/09/22 13:06:51;;;;;;;;;;;22.90;99.90;;;;;;1911699;74;20125;-71
2021/09/22 13:09:19;;;;;;;;;;;23.10;99.90;;;;;;1918553;74;20188;-72
2021/09/22 13:11:46;;;;;;;;;;;23.30;99.90;;;;;;1913964;74;20127;-72
2021/09/22 13:14:16;;;;;;;;;;;23.40;99.90;;;;;;1914883;74;20173;-72
2021/09/22 13:16:57;;;;;;;;;;;23.10;99.90;;;;;;1914448;74;20214;-72
2021/09/22 13:19:25;;;;;;;;;;;23.30;99.90;;;;;;1913701;74;20230;-73
2021/09/22 13:21:52;;;;;;;;;;;23.50;99.90;;;;;;1914114;74;20186;-72
2021/09/22 13:24:20;;;;;;;;;;;23.30;99.90;;;;;;1909245;74;20177;-72
2021/09/22 13:26:48;;;;;;;;;;;23.50;99.90;;;;;;1917234;74;20127;-71
2021/09/22 13:29:17;;;;;;;;;;;23.60;99.90;;;;;;1914920;74;20533;-71
2021/09/22 13:31:45;;;;;;;;;;;23.70;99.90;;;;;;1910195;74;20181;-71
2021/09/22 13:34:11;;;;;;;;;;;23.50;99.90;;;;;;1913138;74;20234;-71
2021/09/22 13:36:39;;;;;;;;;;;23.50;99.90;;;;;;1914156;74;20291;-73
2021/09/22 13:39:06;;;;;;;;;;;23.70;99.90;;;;;;1916287;74;20222;-71
2021/09/22 13:41:34;;;;;;;;;;;23.90;99.90;;;;;;1911411;74;20167;-71
2021/09/22 13:44:04;;;;;;;;;;;23.50;99.90;;;;;;1914355;74;20214;-73
2021/09/22 13:46:30;;;;;;;;;;;23.50;99.90;;;;;;1911343;74;20161;-71
2021/09/22 13:48:57;;;;;;;;;;;23.00;99.90;;;;;;1916431;74;20634;-71
2021/09/22 13:51:24;;;;;;;;;;;23.10;99.90;;;;;;1910852;74;20492;-71
2021/09/22 13:53:51;;;;;;;;;;;23.30;99.90;;;;;;1911138;74;20267;-71
2021/09/22 13:56:18;;;;;;;;;;;23.50;99.90;;;;;;1914445;74;20177;-71
2021/09/22 13:58:45;;;;;;;;;;;23.40;99.90;;;;;;1913529;74;20193;-73
2021/09/22 14:01:12;;;;;;;;;;;23.10;99.90;;;;;;1914819;74;20336;-71
2021/09/22 14:03:39;;;;;;;;;;;23.10;99.90;;;;;;1912486;74;20115;-71
2021/09/22 14:06:06;;;;;;;;;;;23.50;99.90;;;;;;1912004;74;20180;-73
2021/09/22 14:08:34;;;;;;;;;;;23.90;99.90;;;;;;1912812;74;20185;-71
2021/09/22 14:11:01;;;;;;;;;;;23.90;99.90;;;;;;1915825;74;20180;-71
2021/09/22 14:13:28;;;;;;;;;;;24.20;99.90;;;;;;1914845;74;20167;-71
2021/09/22 14:15:55;;;;;;;;;;;24.50;99.90;;;;;;1915226;74;20167;-71
2021/09/22 14:18:22;;;;;;;;;;;24.50;99.90;;;;;;1918157;74;20125;-71